Time;durP1;ratioP1;P1;durP2;ratioP2;P2;SDS_P1;SDS_P2;PMS_P1;PMS_P2;Temp;Humidity;BMP_temperature;BMP_pressure;BME280_temperature;BME280_humidity;BME280_pressure;Samples;Min_cycle;Max_cycle;Signal;HPM_P1;HPM_P2
2022/11/01 00:00:09;;;;;;;23.40;13.20;;;13.70;99.90;;;;;;5072989;28;20279;-76
2022/11/01 00:02:35;;;;;;;24.03;12.10;;;13.70;99.90;;;;;;5073191;28;20048;-76
2022/11/01 00:05:01;;;;;;;20.57;13.30;;;13.70;99.90;;;;;;5072908;28;20274;-76
2022/11/01 00:07:27;;;;;;;19.20;12.77;;;13.70;99.90;;;;;;5073328;28;20095;-76
2022/11/01 00:09:52;;;;;;;20.83;11.53;;;13.80;99.90;;;;;;5072860;28;20044;-76
2022/11/01 00:12:18;;;;;;;19.53;11.57;;;13.80;99.90;;;;;;5073135;28;20048;-75
2022/11/01 00:14:44;;;;;;;20.37;11.73;;;13.80;99.90;;;;;;5072949;28;20087;-76
2022/11/01 00:17:10;;;;;;;20.67;11.30;;;13.80;99.90;;;;;;5073024;28;20048;-76
2022/11/01 00:19:35;;;;;;;19.47;11.33;;;13.80;99.90;;;;;;5073249;28;20048;-76
2022/11/01 00:22:01;;;;;;;26.50;13.00;;;13.80;99.90;;;;;;5072763;28;20384;-76
2022/11/01 00:24:29;;;;;;;18.73;10.80;;;13.90;99.90;;;;;;5072926;28;20136;-76
2022/11/01 00:26:55;;;;;;;17.63;11.53;;;13.90;99.90;;;;;;5072674;28;20042;-76
2022/11/01 00:29:21;;;;;;;18.57;10.33;;;13.90;99.90;;;;;;5071701;28;20123;-76
2022/11/01 00:31:46;;;;;;;17.57;11.03;;;13.90;99.90;;;;;;5072966;28;20044;-76
2022/11/01 00:34:12;;;;;;;22.50;11.30;;;14.00;99.90;;;;;;5071628;28;20045;-76
2022/11/01 00:36:38;;;;;;;22.30;10.67;;;14.00;99.90;;;;;;5073041;28;20131;-76
2022/11/01 00:39:05;;;;;;;15.43;10.17;;;14.00;99.90;;;;;;5071604;28;20059;-76
2022/11/01 00:41:31;;;;;;;16.83;10.73;;;14.00;99.90;;;;;;5071966;28;20076;-76
2022/11/01 00:43:56;;;;;;;19.73;11.13;;;14.00;99.90;;;;;;5072525;28;20141;-76
2022/11/01 00:46:22;;;;;;;22.17;10.83;;;14.10;99.90;;;;;;5071549;28;20063;-76
2022/11/01 00:48:48;;;;;;;20.33;10.33;;;14.10;99.90;;;;;;5072791;28;20136;-76
2022/11/01 00:51:14;;;;;;;17.20;10.30;;;14.10;99.90;;;;;;5072237;28;20044;-76
2022/11/01 00:53:39;;;;;;;18.77;10.53;;;14.10;99.90;;;;;;5073001;28;20063;-76
2022/11/01 00:56:06;;;;;;;17.07;9.17;;;14.10;99.90;;;;;;5072451;28;20135;-76
2022/11/01 00:58:32;;;;;;;25.97;11.10;;;14.10;99.90;;;;;;5072683;28;20043;-76
2022/11/01 01:00:59;;;;;;;15.93;8.87;;;14.10;99.90;;;;;;5072393;28;20452;-76
2022/11/01 01:03:24;;;;;;;18.40;9.90;;;14.20;99.90;;;;;;5072654;28;20045;-75
2022/11/01 01:05:52;;;;;;;15.10;9.17;;;14.10;99.90;;;;;;5072633;28;20127;-75
2022/11/01 01:08:18;;;;;;;19.77;9.20;;;14.20;99.90;;;;;;5072250;28;20045;-76
2022/11/01 01:10:44;;;;;;;17.97;9.90;;;14.10;99.90;;;;;;5072783;28;20431;-76
2022/11/01 01:13:10;;;;;;;25.20;10.00;;;14.20;99.90;;;;;;5072368;28;20391;-76
2022/11/01 01:15:38;;;;;;;17.07;8.73;;;14.20;99.90;;;;;;5072532;28;20044;-76
2022/11/01 01:18:04;;;;;;;15.07;9.03;;;14.20;99.90;;;;;;5071080;28;20477;-76
2022/11/01 01:20:31;;;;;;;19.27;9.20;;;14.20;99.90;;;;;;5072497;28;20063;-76
2022/11/01 01:22:56;;;;;;;17.07;8.90;;;14.20;99.90;;;;;;5071516;28;20435;-76
2022/11/01 01:25:23;;;;;;;22.57;8.47;;;14.20;99.90;;;;;;5071165;28;20094;-76
2022/11/01 01:27:49;;;;;;;18.50;9.40;;;14.20;99.90;;;;;;5074681;28;20048;-76
2022/11/01 01:30:15;;;;;;;18.30;8.90;;;14.20;99.90;;;;;;5075650;28;20060;-76
2022/11/01 01:32:41;;;;;;;14.83;9.10;;;14.20;99.90;;;;;;5075941;28;20052;-76
2022/11/01 01:35:08;;;;;;;17.17;9.40;;;14.20;99.90;;;;;;5075655;28;20051;-76
2022/11/01 01:37:34;;;;;;;19.77;8.53;;;14.10;99.90;;;;;;5074895;28;20059;-75
2022/11/01 01:40:00;;;;;;;19.20;9.17;;;14.10;99.90;;;;;;5075779;28;20044;-77
2022/11/01 01:42:30;;;;;;;17.53;9.53;;;14.20;99.90;;;;;;5075800;28;20561;-75
2022/11/01 01:44:56;;;;;;;19.80;8.57;;;14.20;99.90;;;;;;5075711;28;20086;-75
2022/11/01 01:47:27;;;;;;;17.40;8.33;;;14.10;99.90;;;;;;5075354;28;20345;-75
2022/11/01 01:50:09;;;;;;;19.80;9.50;;;14.10;99.90;;;;;;5075690;28;20049;-75
2022/11/01 01:52:43;;;;;;;15.53;8.43;;;14.10;99.90;;;;;;5075623;28;20045;-75
2022/11/01 01:55:11;;;;;;;13.43;8.27;;;14.10;99.90;;;;;;5075334;28;20605;-76
2022/11/01 01:57:39;;;;;;;20.47;9.30;;;14.10;99.90;;;;;;5075500;28;20147;-76
2022/11/01 02:00:05;;;;;;;19.50;8.33;;;14.10;99.90;;;;;;5075122;28;20317;-76
2022/11/01 02:02:32;;;;;;;18.97;8.23;;;14.10;99.90;;;;;;5075598;28;20044;-75
2022/11/01 02:05:02;;;;;;;16.80;8.23;;;14.10;99.90;;;;;;5075318;28;20278;-75
2022/11/01 02:07:28;;;;;;;15.10;8.23;;;14.10;99.90;;;;;;5075385;28;20297;-75
2022/11/01 02:09:55;;;;;;;17.33;7.73;;;14.10;99.90;;;;;;5074330;28;20049;-75
2022/11/01 02:12:25;;;;;;;17.80;7.20;;;14.10;99.90;;;;;;5074910;28;20389;-75
2022/11/01 02:14:50;;;;;;;15.40;8.27;;;14.10;99.90;;;;;;5075262;28;20407;-75
2022/11/01 02:17:37;;;;;;;21.90;8.10;;;14.20;99.90;;;;;;5073917;28;20052;-75
2022/11/01 02:20:41;;;;;;;13.67;7.47;;;14.20;99.90;;;;;;5075151;28;20079;-75
2022/11/01 02:23:07;;;;;;;11.87;6.87;;;14.30;99.90;;;;;;5073637;28;20044;-76
2022/11/01 02:25:55;;;;;;;17.03;7.97;;;14.30;99.90;;;;;;5075290;28;20040;-75
2022/11/01 02:28:42;;;;;;;18.40;7.47;;;14.30;99.90;;;;;;5074565;28;20528;-75
2022/11/01 02:31:27;;;;;;;14.93;7.03;;;14.30;99.90;;;;;;5074212;28;20299;-76
2022/11/01 02:34:03;;;;;;;18.27;7.53;;;14.30;99.90;;;;;;5074904;28;20287;-74
2022/11/01 02:36:47;;;;;;;13.70;6.77;;;14.30;99.90;;;;;;5074549;28;20048;-74
2022/11/01 02:39:21;;;;;;;15.97;7.00;;;14.30;99.90;;;;;;5074343;28;20514;-75
2022/11/01 02:41:54;;;;;;;12.40;7.60;;;14.30;99.90;;;;;;5073218;28;20596;-75
2022/11/01 02:44:30;;;;;;;12.60;7.30;;;14.30;99.90;;;;;;5074160;28;20056;-75
2022/11/01 02:47:00;;;;;;;14.93;6.90;;;14.30;99.90;;;;;;5074563;28;20424;-75
2022/11/01 02:49:39;;;;;;;15.60;6.70;;;14.30;99.90;;;;;;5074345;28;20040;-75
2022/11/01 02:52:12;;;;;;;16.93;7.63;;;14.30;99.90;;;;;;5074575;28;20278;-75
2022/11/01 02:54:41;;;;;;;15.67;7.47;;;14.30;99.90;;;;;;5074487;28;20041;-75
2022/11/01 02:57:15;;;;;;;14.60;7.20;;;14.30;99.90;;;;;;5073344;28;20052;-75
2022/11/01 02:59:46;;;;;;;13.90;6.97;;;14.30;99.90;;;;;;5074239;28;20112;-75
2022/11/01 03:02:43;;;;;;;17.70;7.43;;;14.40;99.90;;;;;;5072899;28;20051;-77
2022/11/01 03:05:24;;;;;;;17.97;7.63;;;14.40;99.90;;;;;;5074345;28;20326;-75
2022/11/01 03:08:06;;;;;;;13.63;6.20;;;14.40;99.90;;;;;;5073026;28;20044;-75
2022/11/01 03:10:58;;;;;;;12.13;6.77;;;14.40;99.90;;;;;;5073840;28;20044;-75
2022/11/01 03:13:43;;;;;;;12.13;6.47;;;14.50;99.90;;;;;;5073133;28;20052;-75
2022/11/01 03:16:35;;;;;;;14.27;6.93;;;14.50;99.90;;;;;;5074073;28;20041;-75
2022/11/01 03:19:21;;;;;;;14.63;6.50;;;14.50;99.90;;;;;;5073355;28;20068;-75
2022/11/01 03:22:07;;;;;;;10.17;5.80;;;14.50;99.90;;;;;;5074190;28;20124;-76
2022/11/01 03:24:38;;;;;;;12.83;6.67;;;14.60;99.90;;;;;;5065981;28;20048;-76
2022/11/01 03:27:23;;;;;;;15.53;7.00;;;14.60;99.90;;;;;;5073877;28;20040;-76
2022/11/01 03:29:56;;;;;;;19.57;6.50;;;14.60;99.90;;;;;;5073758;28;20140;-76
2022/11/01 03:32:30;;;;;;;13.13;7.20;;;14.60;99.90;;;;;;5072155;28;20344;-76
2022/11/01 03:34:59;;;;;;;13.98;6.80;;;14.60;99.90;;;;;;5073756;28;20119;-76
2022/11/01 03:37:27;;;;;;;16.90;6.77;;;14.60;99.90;;;;;;5073267;28;20119;-76
2022/11/01 03:39:54;;;;;;;12.87;5.90;;;14.60;99.90;;;;;;5073824;28;20076;-75
2022/11/01 03:42:22;;;;;;;12.00;6.57;;;14.60;99.90;;;;;;5073236;28;20052;-76
2022/11/01 03:45:02;;;;;;;13.83;6.30;;;14.60;99.90;;;;;;5072481;28;20412;-75
2022/11/01 03:47:28;;;;;;;15.67;6.67;;;14.60;99.90;;;;;;5073220;28;20048;-76
2022/11/01 03:50:14;;;;;;;13.83;6.20;;;14.60;99.90;;;;;;5073051;28;20131;-76
2022/11/01 03:52:40;;;;;;;16.43;6.80;;;14.60;99.90;;;;;;5073127;28;20060;-76
2022/11/01 03:55:16;;;;;;;19.73;7.40;;;14.70;99.90;;;;;;5073453;28;20101;-76
2022/11/01 03:57:50;;;;;;;16.57;6.40;;;14.70;99.90;;;;;;5073117;28;20045;-76
2022/11/01 04:00:20;;;;;;;11.10;5.63;;;14.70;99.90;;;;;;5073419;28;20400;-76
2022/11/01 04:02:47;;;;;;;16.83;6.83;;;14.70;99.90;;;;;;5073550;28;20094;-76
2022/11/01 04:05:13;;;;;;;10.90;6.40;;;14.70;99.90;;;;;;5073422;28;20055;-76
2022/11/01 04:07:39;;;;;;;11.07;6.00;;;14.80;99.90;;;;;;5072823;28;20046;-76
2022/11/01 04:10:05;;;;;;;16.33;6.23;;;14.80;99.90;;;;;;5073215;28;20044;-76
2022/11/01 04:12:32;;;;;;;16.50;6.57;;;14.80;99.90;;;;;;5072935;28;20041;-76
2022/11/01 04:20:32;;;;;;;11.63;5.87;;;14.90;99.90;;;;;;5072806;28;20048;-76
2022/11/01 04:23:03;;;;;;;14.23;6.10;;;14.90;99.90;;;;;;5073341;28;20127;-75
2022/11/01 04:25:29;;;;;;;14.87;6.53;;;14.90;99.90;;;;;;5073017;28;20055;-76
2022/11/01 04:27:55;;;;;;;11.83;5.77;;;14.90;99.90;;;;;;5072136;28;20182;-76
2022/11/01 04:30:30;;;;;;;11.23;5.83;;;14.90;99.90;;;;;;5072876;28;20143;-75
2022/11/01 04:32:56;;;;;;;10.90;6.32;;;14.90;99.90;;;;;;5073064;28;20451;-76
2022/11/01 04:35:22;;;;;;;14.87;6.83;;;14.90;99.90;;;;;;5072978;28;20078;-75
2022/11/01 04:37:55;;;;;;;15.83;6.43;;;14.90;99.90;;;;;;5072597;28;20041;-76
2022/11/01 04:40:20;;;;;;;14.23;5.63;;;14.90;99.90;;;;;;5072953;28;20102;-76
2022/11/01 04:42:46;;;;;;;12.73;6.10;;;14.90;99.90;;;;;;5071541;28;20044;-76
2022/11/01 04:45:12;;;;;;;13.77;6.67;;;14.90;99.90;;;;;;5072825;28;20044;-76
2022/11/01 04:47:37;;;;;;;10.13;6.30;;;14.90;99.90;;;;;;5071414;28;20048;-75
2022/11/01 04:50:03;;;;;;;15.43;6.43;;;14.90;99.90;;;;;;5073054;28;20049;-75
2022/11/01 04:52:29;;;;;;;11.77;5.87;;;14.90;99.90;;;;;;5071236;28;20505;-76
2022/11/01 04:54:55;;;;;;;17.80;6.13;;;14.80;99.90;;;;;;5073033;28;20057;-76
2022/11/01 04:57:23;;;;;;;10.73;6.07;;;14.80;99.90;;;;;;5072834;28;20049;-76
2022/11/01 04:59:53;;;;;;;15.13;6.70;;;14.80;99.90;;;;;;5071265;28;20159;-76
2022/11/01 05:02:20;;;;;;;11.40;5.50;;;14.80;99.90;;;;;;5074085;28;20087;-76
2022/11/01 05:04:45;;;;;;;10.83;5.87;;;14.80;99.90;;;;;;5076188;28;20369;-76
2022/11/01 05:07:12;;;;;;;11.40;5.80;;;14.80;99.90;;;;;;5076396;28;20069;-76
2022/11/01 05:09:37;;;;;;;11.20;5.40;;;14.80;99.90;;;;;;5074988;28;20044;-76
2022/11/01 05:12:03;;;;;;;9.43;5.07;;;14.80;99.90;;;;;;5076319;28;20182;-75
2022/11/01 05:14:29;;;;;;;8.57;3.90;;;14.80;99.90;;;;;;5076334;28;20055;-75
2022/11/01 05:16:55;;;;;;;9.10;3.63;;;14.90;99.90;;;;;;5075068;28;20123;-76
2022/11/01 05:19:21;;;;;;;5.40;2.33;;;14.80;99.90;;;;;;5075068;28;20044;-76
2022/11/01 05:21:47;;;;;;;8.23;2.60;;;14.80;99.90;;;;;;5075874;28;20408;-76
2022/11/01 05:24:13;;;;;;;8.57;2.00;;;14.80;99.90;;;;;;5076095;28;20044;-76
2022/11/01 05:26:38;;;;;;;12.67;2.40;;;14.80;99.90;;;;;;5075810;28;20048;-76
2022/11/01 05:29:04;;;;;;;7.73;1.80;;;14.70;99.90;;;;;;5076029;28;20040;-76
2022/11/01 05:31:30;;;;;;;6.10;1.67;;;14.70;99.90;;;;;;5074269;28;20053;-76
2022/11/01 05:33:56;;;;;;;5.00;1.53;;;14.70;99.90;;;;;;5075698;28;20151;-76
2022/11/01 05:36:22;;;;;;;7.93;1.97;;;14.60;99.90;;;;;;5075948;28;20469;-76
2022/11/01 05:38:47;;;;;;;4.70;1.60;;;14.60;99.90;;;;;;5075661;28;20131;-76
2022/11/01 05:41:13;;;;;;;5.10;2.00;;;14.50;99.90;;;;;;5075774;28;20055;-76
2022/11/01 05:43:39;;;;;;;10.20;1.83;;;14.50;99.90;;;;;;5074660;28;20049;-77
2022/11/01 05:46:06;;;;;;;9.87;1.90;;;14.50;99.90;;;;;;5075675;28;20102;-76
2022/11/01 05:48:32;;;;;;;6.33;1.53;;;14.50;99.90;;;;;;5075591;28;20055;-76
2022/11/01 05:50:58;;;;;;;6.80;2.20;;;14.40;99.90;;;;;;5074404;28;20127;-76
2022/11/01 05:53:23;;;;;;;5.60;2.20;;;14.40;99.90;;;;;;5075965;28;20128;-76
2022/11/01 05:55:50;;;;;;;5.87;1.80;;;14.40;99.90;;;;;;5075196;28;20481;-76
2022/11/01 05:58:16;;;;;;;8.20;1.70;;;14.30;99.90;;;;;;5075359;28;20036;-76
2022/11/01 06:00:42;;;;;;;9.20;2.20;;;14.30;99.90;;;;;;5075313;28;20106;-77
2022/11/01 06:03:07;;;;;;;8.77;1.77;;;14.30;99.90;;;;;;5074429;28;20480;-76
2022/11/01 06:05:33;;;;;;;5.23;1.33;;;14.20;99.90;;;;;;5075323;28;20098;-76
2022/11/01 06:08:00;;;;;;;8.37;1.40;;;14.20;99.90;;;;;;5075012;28;20048;-76
2022/11/01 06:10:27;;;;;;;6.60;1.23;;;14.10;99.90;;;;;;5057597;28;20091;-76
2022/11/01 06:12:53;;;;;;;9.07;1.40;;;14.00;99.90;;;;;;5074610;28;20036;-76
2022/11/01 06:15:19;;;;;;;10.37;1.53;;;14.00;99.90;;;;;;5075369;28;20452;-76
2022/11/01 06:17:45;;;;;;;6.93;1.80;;;13.90;99.90;;;;;;5073980;28;20056;-76
2022/11/01 06:20:11;;;;;;;8.50;2.07;;;13.90;99.90;;;;;;5075139;28;20545;-76
2022/11/01 06:22:37;;;;;;;9.67;1.90;;;13.90;99.90;;;;;;5075023;28;20052;-76
2022/11/01 06:25:04;;;;;;;13.67;2.43;;;13.90;99.90;;;;;;5073782;28;20044;-77
2022/11/01 06:27:29;;;;;;;6.07;1.50;;;13.80;99.90;;;;;;5074846;28;20041;-76
2022/11/01 06:29:55;;;;;;;7.63;1.80;;;13.80;99.90;;;;;;5074323;28;20064;-76
2022/11/01 06:32:21;;;;;;;6.93;1.63;;;13.80;99.90;;;;;;5074851;28;20090;-77
2022/11/01 06:34:46;;;;;;;7.70;1.53;;;13.80;99.90;;;;;;5056840;28;20067;-77
2022/11/01 06:37:12;;;;;;;10.43;2.43;;;13.70;99.90;;;;;;5040546;28;20055;-77
2022/11/01 06:39:38;;;;;;;10.80;2.27;;;13.70;99.90;;;;;;5074819;28;20044;-77
2022/11/01 06:42:04;;;;;;;12.43;2.10;;;13.70;99.90;;;;;;5073200;28;20071;-77
2022/11/01 06:44:29;;;;;;;11.97;2.23;;;13.60;99.90;;;;;;5074671;28;20218;-77
2022/11/01 06:46:55;;;;;;;9.53;1.60;;;13.60;99.90;;;;;;5074300;28;20128;-76
2022/11/01 06:49:21;;;;;;;7.57;1.80;;;13.60;99.90;;;;;;5073834;28;20464;-76
2022/11/01 06:51:47;;;;;;;8.17;1.90;;;13.60;99.90;;;;;;5074242;28;20105;-77
2022/11/01 06:54:13;;;;;;;6.17;1.80;;;13.60;99.90;;;;;;5074489;28;20095;-77
2022/11/01 06:56:39;;;;;;;9.53;2.00;;;13.60;99.90;;;;;;5073286;28;20098;-77
2022/11/01 06:59:05;;;;;;;13.83;2.90;;;13.60;99.90;;;;;;5074149;28;20275;-76
2022/11/01 07:01:32;;;;;;;16.10;3.67;;;13.50;99.90;;;;;;5074029;28;20499;-76
2022/11/01 07:03:58;;;;;;;8.83;2.10;;;13.60;99.90;;;;;;5073383;28;20797;-76
2022/11/01 07:06:27;;;;;;;13.03;2.00;;;13.60;99.90;;;;;;5073321;28;20044;-76
2022/11/01 07:08:53;;;;;;;10.67;2.07;;;13.60;99.90;;;;;;5072629;28;20040;-76
2022/11/01 07:11:19;;;;;;;9.63;2.07;;;13.60;99.90;;;;;;5074285;28;20639;-76
2022/11/01 07:13:44;;;;;;;29.67;2.70;;;13.60;99.90;;;;;;5074072;28;20056;-76
2022/11/01 07:16:10;;;;;;;13.13;2.50;;;13.70;99.90;;;;;;5073751;28;20044;-76
2022/11/01 07:18:36;;;;;;;12.07;2.67;;;13.70;99.90;;;;;;5074025;28;20047;-76
2022/11/01 07:21:03;;;;;;;12.10;2.67;;;13.70;99.90;;;;;;5072491;28;20477;-76
2022/11/01 07:23:29;;;;;;;15.60;2.93;;;13.70;99.90;;;;;;5072891;28;20369;-76
2022/11/01 07:25:55;;;;;;;17.10;3.10;;;13.70;99.90;;;;;;5071948;28;20431;-76
2022/11/01 07:28:23;;;;;;;14.23;2.63;;;13.70;99.90;;;;;;5073690;28;20044;-77
2022/11/01 07:30:51;;;;;;;14.57;3.10;;;13.80;99.90;;;;;;5073772;28;20294;-77
2022/11/01 07:33:17;;;;;;;12.23;3.03;;;13.80;99.90;;;;;;5073719;28;20287;-76
2022/11/01 07:35:43;;;;;;;12.40;2.47;;;13.80;99.90;;;;;;5073613;28;20294;-77
2022/11/01 07:38:10;;;;;;;14.33;2.60;;;13.90;99.90;;;;;;5073355;28;20048;-76
2022/11/01 07:40:36;;;;;;;13.80;2.93;;;13.90;99.90;;;;;;5073588;28;20044;-76
2022/11/01 07:43:03;;;;;;;16.07;2.53;;;14.00;99.90;;;;;;5073356;28;20118;-77
2022/11/01 07:45:31;;;;;;;18.00;2.87;;;14.00;99.90;;;;;;5073811;28;20365;-76
2022/11/01 07:48:01;;;;;;;19.03;2.97;;;14.00;99.90;;;;;;5072045;28;20067;-76
2022/11/01 07:50:31;;;;;;;13.70;3.47;;;14.10;99.90;;;;;;5073451;28;20044;-76
2022/11/01 07:53:01;;;;;;;12.27;2.70;;;14.20;99.90;;;;;;5055562;28;20048;-76
2022/11/01 07:55:27;;;;;;;14.93;2.60;;;14.10;99.90;;;;;;5073386;28;20044;-76
2022/11/01 07:57:53;;;;;;;11.07;3.10;;;14.10;99.90;;;;;;5073397;28;20051;-76
2022/11/01 08:00:19;;;;;;;14.10;2.80;;;14.20;99.90;;;;;;5073162;28;20622;-76
2022/11/01 08:02:45;;;;;;;16.17;3.27;;;14.20;99.90;;;;;;5072908;28;20097;-77
2022/11/01 08:05:11;;;;;;;18.97;3.10;;;14.20;99.90;;;;;;5071712;28;20044;-73
2022/11/01 08:07:40;;;;;;;13.27;2.90;;;14.30;99.90;;;;;;5072841;28;20040;-74
2022/11/01 08:10:08;;;;;;;19.37;3.33;;;14.30;99.90;;;;;;5072579;28;20068;-77
2022/11/01 08:12:34;;;;;;;11.77;2.53;;;14.20;99.90;;;;;;5072508;28;20135;-77
2022/11/01 08:15:01;;;;;;;11.73;3.57;;;14.30;99.90;;;;;;5072823;28;20135;-76
2022/11/01 08:17:29;;;;;;;14.53;3.10;;;14.30;99.90;;;;;;5073349;28;20051;-75
2022/11/01 08:19:55;;;;;;;20.07;3.47;;;14.30;99.90;;;;;;5072831;28;20622;-75
2022/11/01 08:22:21;;;;;;;13.77;3.27;;;14.40;99.90;;;;;;5071581;28;20374;-75
2022/11/01 08:24:46;;;;;;;19.33;3.97;;;14.30;99.90;;;;;;5073354;28;20044;-76
2022/11/01 08:27:12;;;;;;;14.03;2.83;;;14.30;99.90;;;;;;5071533;28;20086;-75
2022/11/01 08:29:38;;;;;;;20.13;3.97;;;14.30;99.90;;;;;;5073209;28;20477;-75
2022/11/01 08:32:03;;;;;;;29.60;4.27;;;14.30;99.90;;;;;;5072796;28;20049;-76
2022/11/01 08:34:30;;;;;;;23.23;4.10;;;14.30;99.90;;;;;;5072985;28;20059;-75
2022/11/01 08:36:58;;;;;;;20.27;4.20;;;14.30;99.90;;;;;;5075577;28;20400;-76
2022/11/01 08:39:24;;;;;;;18.90;3.27;;;14.30;99.90;;;;;;5076792;28;20481;-76
2022/11/01 08:41:50;;;;;;;16.33;3.33;;;14.30;99.90;;;;;;5077132;28;20105;-75
2022/11/01 08:44:18;;;;;;;19.77;4.13;;;14.30;99.90;;;;;;5076404;28;20040;-75
2022/11/01 08:46:44;;;;;;;16.90;3.87;;;14.30;99.90;;;;;;5076895;28;20048;-75
2022/11/01 08:49:11;;;;;;;18.97;3.63;;;14.30;99.90;;;;;;5075474;28;20536;-76
2022/11/01 08:51:37;;;;;;;18.77;5.10;;;14.20;99.90;;;;;;5076761;28;20128;-75
2022/11/01 08:54:04;;;;;;;17.30;3.30;;;14.30;99.90;;;;;;5076213;28;20507;-76
2022/11/01 08:56:30;;;;;;;16.23;3.63;;;14.30;99.90;;;;;;5076729;28;20135;-75
2022/11/01 08:58:56;;;;;;;22.00;4.37;;;14.30;99.90;;;;;;5076756;28;20044;-75
2022/11/01 09:01:25;;;;;;;19.73;3.70;;;14.40;99.90;;;;;;5076487;28;20471;-76
2022/11/01 09:03:56;;;;;;;20.70;3.73;;;14.40;99.90;;;;;;5075702;28;20452;-76
2022/11/01 09:06:22;;;;;;;20.63;4.10;;;14.40;99.90;;;;;;5076356;28;20049;-75
2022/11/01 09:08:49;;;;;;;14.70;3.77;;;14.50;99.90;;;;;;5076557;28;20090;-76
2022/11/01 09:11:15;;;;;;;19.23;4.47;;;14.50;99.90;;;;;;5076170;28;20059;-75
2022/11/01 09:13:40;;;;;;;21.10;4.07;;;14.50;99.90;;;;;;5076428;28;20045;-76
2022/11/01 09:16:07;;;;;;;21.87;3.97;;;14.60;99.90;;;;;;5076127;28;20123;-75
2022/11/01 09:18:33;;;;;;;22.80;4.90;;;14.60;99.90;;;;;;5075086;28;20041;-76
2022/11/01 09:20:59;;;;;;;20.37;4.50;;;14.60;99.90;;;;;;5076235;28;20061;-75
2022/11/01 09:23:25;;;;;;;20.47;3.63;;;14.70;99.90;;;;;;5075895;28;20041;-76
2022/11/01 09:25:50;;;;;;;19.03;3.63;;;14.70;99.90;;;;;;5076140;28;20055;-76
2022/11/01 09:28:16;;;;;;;18.60;4.43;;;14.70;99.90;;;;;;5075715;28;20124;-75
2022/11/01 09:30:42;;;;;;;22.73;4.00;;;14.70;99.90;;;;;;5076235;28;20542;-75
2022/11/01 09:33:08;;;;;;;17.87;3.70;;;14.70;99.90;;;;;;5075517;28;20048;-74
2022/11/01 09:35:34;;;;;;;19.50;3.90;;;14.70;99.90;;;;;;5076011;28;20040;-74
2022/11/01 09:38:02;;;;;;;18.27;4.10;;;14.80;99.90;;;;;;5076060;28;20040;-74
2022/11/01 09:40:34;;;;;;;25.47;4.10;;;14.80;99.90;;;;;;5074790;28;20404;-73
2022/11/01 09:43:02;;;;;;;21.83;4.23;;;15.00;99.90;;;;;;5076040;28;20066;-74
2022/11/01 09:45:31;;;;;;;20.73;4.03;;;15.00;99.90;;;;;;5075718;28;20040;-74
2022/11/01 09:47:58;;;;;;;16.03;2.83;;;14.90;99.90;;;;;;5075028;28;20043;-73
2022/11/01 09:50:26;;;;;;;22.07;4.50;;;14.90;99.90;;;;;;5075562;28;20075;-73
2022/11/01 09:52:54;;;;;;;21.60;4.27;;;14.90;99.90;;;;;;5075748;28;20040;-74
2022/11/01 09:55:38;;;;;;;20.20;3.87;;;14.90;99.90;;;;;;5075346;28;20484;-75
2022/11/01 09:58:29;;;;;;;18.03;4.40;;;14.90;99.90;;;;;;5075895;28;20048;-73
2022/11/01 10:01:37;;;;;;;22.10;4.77;;;15.00;99.90;;;;;;5075197;28;20057;-83
2022/11/01 10:04:37;;;;;;;20.13;4.30;;;15.10;99.90;;;;;;5075545;28;20055;-80
2022/11/01 10:07:16;;;;;;;15.20;3.77;;;15.10;99.90;;;;;;5074739;28;20048;-83
2022/11/01 10:09:49;;;;;;;32.30;4.40;;;15.10;99.90;;;;;;5072576;28;20047;-78
2022/11/01 10:12:36;;;;;;;29.57;5.07;;;15.10;99.90;;;;;;5072464;28;20052;-79
2022/11/01 10:15:29;;;;;;;23.87;4.43;;;15.20;99.90;;;;;;5073539;28;20052;-78
2022/11/01 10:18:08;;;;;;;15.90;3.47;;;15.20;99.90;;;;;;5071886;28;20062;-82
2022/11/01 10:20:39;;;;;;;22.90;3.97;;;15.20;99.90;;;;;;5075013;28;20087;-83
2022/11/01 10:23:05;;;;;;;20.07;3.83;;;15.10;99.90;;;;;;5075447;28;20120;-78
2022/11/01 10:25:35;;;;;;;21.27;4.37;;;15.10;99.90;;;;;;5074793;28;20138;-79
2022/11/01 10:28:22;;;;;;;22.27;3.83;;;15.10;99.90;;;;;;5075023;28;20102;-78
2022/11/01 10:30:55;;;;;;;15.00;3.93;;;15.00;99.90;;;;;;5075265;28;20057;-84
2022/11/01 10:33:45;;;;;;;17.10;4.10;;;15.10;99.90;;;;;;5074764;28;20053;-76
2022/11/01 10:36:32;;;;;;;20.07;4.00;;;15.10;99.90;;;;;;5074938;28;20044;-78
2022/11/01 10:39:14;;;;;;;28.53;4.73;;;15.20;99.90;;;;;;5074172;28;20436;-74
2022/11/01 10:41:49;;;;;;;22.37;4.10;;;15.20;99.90;;;;;;5074541;28;20056;-74
2022/11/01 10:44:23;;;;;;;16.75;4.00;;;15.10;99.90;;;;;;5074928;28;20044;-76
2022/11/01 10:46:51;;;;;;;18.13;3.65;;;15.10;99.90;;;;;;5073668;28;20496;-78
2022/11/01 10:49:38;;;;;;;17.63;4.40;;;15.00;99.90;;;;;;5074601;28;20090;-79
2022/11/01 10:52:10;;;;;;;18.63;4.07;;;15.10;99.90;;;;;;5074231;28;20036;-80
2022/11/01 10:54:38;;;;;;;20.87;4.43;;;15.10;99.90;;;;;;5071567;28;20044;-77
2022/11/01 10:57:28;;;;;;;17.63;4.87;;;15.10;99.90;;;;;;5074056;28;20097;-77
2022/11/01 10:59:56;;;;;;;22.50;3.53;;;15.10;99.90;;;;;;5069549;28;20381;-76
2022/11/01 11:02:43;;;;;;;17.77;3.63;;;15.10;99.90;;;;;;5072649;28;20048;-76
2022/11/01 11:05:13;;;;;;;21.20;4.07;;;15.20;99.90;;;;;;5072426;28;20052;-77
2022/11/01 11:07:40;;;;;;;18.40;4.43;;;15.20;99.90;;;;;;5073539;28;20127;-78
2022/11/01 11:10:17;;;;;;;16.70;3.53;;;15.20;99.90;;;;;;5073382;28;20488;-76
2022/11/01 11:12:44;;;;;;;17.50;4.00;;;15.20;99.90;;;;;;5072234;28;20056;-77
2022/11/01 11:15:18;;;;;;;16.27;4.03;;;15.20;99.90;;;;;;5073585;28;20438;-80
2022/11/01 11:17:47;;;;;;;17.53;3.80;;;15.30;99.90;;;;;;5073610;28;20040;-74
2022/11/01 11:20:25;;;;;;;17.17;4.10;;;15.30;99.90;;;;;;5073891;28;20052;-79
2022/11/01 11:22:50;;;;;;;15.50;3.87;;;15.30;99.90;;;;;;5074214;28;20120;-80
2022/11/01 11:25:21;;;;;;;17.97;4.30;;;15.30;99.90;;;;;;5073991;28;20148;-79
2022/11/01 11:27:52;;;;;;;17.00;3.37;;;15.20;99.90;;;;;;5073375;28;20102;-76
2022/11/01 11:30:31;;;;;;;17.07;3.47;;;15.20;99.90;;;;;;5073428;28;20501;-77
2022/11/01 11:32:58;;;;;;;15.80;3.60;;;15.20;99.90;;;;;;5073996;28;20063;-78
2022/11/01 11:35:27;;;;;;;17.77;4.00;;;15.10;99.90;;;;;;5073694;28;20041;-76
2022/11/01 11:38:04;;;;;;;18.00;4.20;;;15.10;99.90;;;;;;5073357;28;20489;-77
2022/11/01 11:40:39;;;;;;;16.87;3.47;;;15.10;99.90;;;;;;5073500;28;20094;-77
2022/11/01 11:43:30;;;;;;;14.48;3.25;;;15.10;99.90;;;;;;5073609;28;20052;-77
2022/11/01 11:46:23;;;;;;;17.10;3.50;;;15.10;99.90;;;;;;5073623;28;20056;-76
2022/11/01 11:48:59;;;;;;;21.83;3.60;;;15.10;99.90;;;;;;5073277;28;20638;-77
2022/11/01 11:51:28;;;;;;;12.50;2.60;;;15.20;99.90;;;;;;5072467;28;20431;-73
2022/11/01 11:54:18;;;;;;;14.83;3.53;;;15.20;99.90;;;;;;5073434;28;20064;-77
2022/11/01 11:56:45;;;;;;;16.30;3.50;;;15.20;99.90;;;;;;5073222;28;20048;-74
2022/11/01 11:59:30;;;;;;;17.40;4.33;;;15.20;99.90;;;;;;5073341;28;20106;-74
2022/11/01 12:01:58;;;;;;;19.50;3.83;;;15.30;99.90;;;;;;5073744;28;20044;-79
2022/11/01 12:04:30;;;;;;;16.83;3.57;;;15.30;99.90;;;;;;5072119;28;20048;-75
2022/11/01 12:06:57;;;;;;;13.90;2.70;;;15.30;99.90;;;;;;5072249;28;20044;-75
2022/11/01 12:09:45;;;;;;;15.97;3.10;;;15.30;99.90;;;;;;5073242;28;20136;-75
2022/11/01 12:12:31;;;;;;;18.00;3.50;;;15.30;99.90;;;;;;5073065;28;20380;-75
2022/11/01 12:14:59;;;;;;;17.90;3.00;;;15.30;99.90;;;;;;5073447;28;20048;-75
2022/11/01 12:17:31;;;;;;;13.60;3.10;;;15.30;99.90;;;;;;5073027;28;20489;-75
2022/11/01 12:20:21;;;;;;;14.63;3.83;;;15.40;99.90;;;;;;5072499;28;20377;-75
2022/11/01 12:22:59;;;;;;;17.57;3.70;;;15.40;99.90;;;;;;5072777;28;20092;-75
2022/11/01 12:25:25;;;;;;;21.63;3.73;;;15.40;99.90;;;;;;5073526;28;20071;-75
2022/11/01 12:27:58;;;;;;;16.13;3.17;;;15.30;99.90;;;;;;5072795;28;20480;-75
2022/11/01 12:30:26;;;;;;;13.23;2.73;;;15.30;99.90;;;;;;5072935;28;20082;-74
2022/11/01 12:32:57;;;;;;;15.23;3.87;;;15.30;99.90;;;;;;5072917;28;20041;-75
2022/11/01 12:35:36;;;;;;;15.83;3.03;;;15.30;99.90;;;;;;5073145;28;20442;-75
2022/11/01 12:38:10;;;;;;;15.23;3.87;;;15.30;99.90;;;;;;5073134;28;20040;-75
2022/11/01 12:40:39;;;;;;;17.37;2.83;;;15.30;99.90;;;;;;5073003;28;20102;-75
2022/11/01 12:43:15;;;;;;;15.60;3.63;;;15.30;99.90;;;;;;5055530;28;20311;-75
2022/11/01 12:45:54;;;;;;;12.20;3.37;;;15.40;99.90;;;;;;5072817;28;20048;-75
2022/11/01 12:48:40;;;;;;;16.67;3.20;;;15.40;99.90;;;;;;5073021;28;20044;-75
2022/11/01 12:51:19;;;;;;;15.23;4.10;;;15.40;99.90;;;;;;5073015;28;20136;-75
2022/11/01 12:54:24;;;;;;;20.57;3.93;;;15.50;99.90;;;;;;5072930;28;20403;-75
2022/11/01 12:56:53;;;;;;;15.73;3.03;;;15.50;99.90;;;;;;5072842;28;20049;-75
2022/11/01 12:59:33;;;;;;;18.03;2.97;;;15.50;99.90;;;;;;5071726;28;20056;-75